createdAt,value
2017-04-14T00:00:40.637Z,0
2017-04-14T00:01:40.646Z,0
2017-04-14T00:02:40.655Z,0
2017-04-14T00:03:40.670Z,0
2017-04-14T00:04:40.684Z,0
2017-04-14T00:05:40.699Z,0
2017-04-14T00:06:40.718Z,0
2017-04-14T00:07:40.731Z,0
2017-04-14T00:08:40.749Z,0
2017-04-14T00:09:40.757Z,0
2017-04-14T00:10:40.780Z,0
2017-04-14T00:11:40.796Z,0
2017-04-14T00:12:40.812Z,0
2017-04-14T00:13:40.842Z,0
2017-04-14T00:14:40.843Z,0
2017-04-14T00:15:40.641Z,0
2017-04-14T00:16:40.877Z,0
2017-04-14T00:17:40.895Z,0
2017-04-14T00:18:40.910Z,0
2017-04-14T00:19:40.608Z,0
2017-04-14T00:20:40.947Z,0
2017-04-14T00:21:40.969Z,0
2017-04-14T00:22:40.663Z,0
2017-04-14T00:23:41.008Z,0
2017-04-14T00:24:41.017Z,0
2017-04-14T00:25:40.710Z,0
2017-04-14T00:26:41.042Z,0
2017-04-14T00:27:41.071Z,0
2017-04-14T00:28:41.072Z,0
2017-04-14T00:29:41.085Z,0
2017-04-14T00:30:41.106Z,0
2017-04-14T00:31:40.807Z,0
2017-04-14T00:32:41.131Z,0
2017-04-14T00:33:41.149Z,0
2017-04-14T00:34:41.170Z,0
2017-04-14T00:35:41.187Z,0
2017-04-14T00:36:41.197Z,0
2017-04-14T00:37:41.227Z,0
2017-04-14T00:38:41.235Z,0
2017-04-14T00:39:41.243Z,0
2017-04-14T00:40:41.268Z,0
2017-04-14T00:41:41.279Z,0
2017-04-14T00:42:41.305Z,0
2017-04-14T00:43:41.308Z,0
2017-04-14T00:44:41.336Z,0
2017-04-14T00:45:41.349Z,0
2017-04-14T00:46:41.364Z,0
2017-04-14T00:47:41.387Z,0
2017-04-14T00:48:41.389Z,0
2017-04-14T00:49:41.417Z,0
2017-04-14T00:50:41.418Z,0
2017-04-14T00:51:41.443Z,0
2017-04-14T00:52:41.460Z,0
2017-04-14T00:53:41.476Z,0
2017-04-14T00:54:41.489Z,0
2017-04-14T00:55:41.503Z,0
2017-04-14T00:56:41.519Z,0
2017-04-14T00:57:41.537Z,0
2017-04-14T00:58:41.557Z,0
2017-04-14T00:59:41.256Z,0
2017-04-14T01:00:41.588Z,0
2017-04-14T01:01:41.604Z,0
2017-04-14T01:02:41.615Z,0
2017-04-14T01:03:41.638Z,0
2017-04-14T01:04:41.645Z,0
2017-04-14T01:05:41.661Z,0
2017-04-14T01:06:41.732Z,0
2017-04-14T01:07:41.698Z,0
2017-04-14T01:08:41.715Z,0
2017-04-14T01:09:41.728Z,0
2017-04-14T01:10:41.744Z,0
2017-04-14T01:11:41.763Z,0
2017-04-14T01:12:41.458Z,0
2017-04-14T01:13:41.790Z,0
2017-04-14T01:14:41.494Z,0
2017-04-14T01:15:41.815Z,0
2017-04-14T01:16:41.214Z,0
2017-04-14T01:17:41.855Z,0
2017-04-14T01:18:41.869Z,0
2017-04-14T01:19:41.889Z,0
2017-04-14T01:20:41.890Z,0
2017-04-14T01:21:41.918Z,0
2017-04-14T01:22:41.979Z,0
2017-04-14T01:23:41.962Z,0
2017-04-14T01:24:41.962Z,0
2017-04-14T01:25:41.978Z,0
2017-04-14T01:26:41.994Z,0
2017-04-14T01:27:42.015Z,0
2017-04-14T01:28:42.027Z,0
2017-04-14T01:29:42.041Z,0
2017-04-14T01:30:42.060Z,0
2017-04-14T01:31:41.756Z,0
2017-04-14T01:32:42.092Z,0
2017-04-14T01:33:42.110Z,0
2017-04-14T01:34:42.124Z,0
2017-04-14T01:35:42.264Z,0
2017-04-14T01:36:42.257Z,0
2017-04-14T01:37:42.284Z,0
2017-04-14T01:38:42.280Z,0
2017-04-14T01:39:42.316Z,0
2017-04-14T01:40:42.313Z,0
2017-04-14T01:41:42.322Z,0
2017-04-14T01:42:42.295Z,0
2017-04-14T01:43:42.296Z,0
2017-04-14T01:44:42.302Z,0
2017-04-14T01:45:42.305Z,0
2017-04-14T01:46:42.310Z,0
2017-04-14T01:47:42.331Z,0
2017-04-14T01:48:42.343Z,0
2017-04-14T01:49:42.473Z,0
2017-04-14T01:50:42.493Z,0
2017-04-14T01:51:42.461Z,0
2017-04-14T01:52:42.403Z,0
2017-04-14T01:53:42.551Z,0
2017-04-14T01:54:42.548Z,0
2017-04-14T01:55:42.252Z,0
2017-04-14T01:56:42.563Z,0
2017-04-14T01:57:42.272Z,0
2017-04-14T01:58:42.696Z,0
2017-04-14T01:59:42.707Z,0
2017-04-14T02:00:42.716Z,0
2017-04-14T02:01:42.724Z,0
2017-04-14T02:02:42.740Z,0
2017-04-14T02:03:42.733Z,0
2017-04-14T02:04:42.739Z,0
2017-04-14T02:05:42.757Z,0
2017-04-14T02:06:42.442Z,0
2017-04-14T02:07:42.762Z,0
2017-04-14T02:08:42.760Z,0
2017-04-14T02:09:42.454Z,0
2017-04-14T02:10:42.508Z,0
2017-04-14T02:11:42.506Z,0
2017-04-14T02:12:42.837Z,0
2017-04-14T02:13:42.840Z,0
2017-04-14T02:14:42.847Z,0
2017-04-14T02:15:42.848Z,0
2017-04-14T02:16:42.865Z,0
2017-04-14T02:17:42.875Z,0
2017-04-14T02:18:42.922Z,0
2017-04-14T02:19:42.925Z,0
2017-04-14T02:20:42.610Z,0
2017-04-14T02:21:42.939Z,0
2017-04-14T02:22:42.945Z,0
2017-04-14T02:23:42.894Z,0
2017-04-14T02:24:42.906Z,0
2017-04-14T02:25:42.917Z,0
2017-04-14T02:26:42.936Z,0
2017-04-14T02:27:42.951Z,0
2017-04-14T02:28:42.959Z,0
2017-04-14T02:29:42.670Z,0
2017-04-14T02:30:42.997Z,0
2017-04-14T02:31:43.010Z,0
2017-04-14T02:32:43.030Z,0
2017-04-14T02:33:43.047Z,0
2017-04-14T02:34:43.059Z,0
2017-04-14T02:35:43.076Z,0
2017-04-14T02:36:43.082Z,0
2017-04-14T02:37:43.109Z,0
2017-04-14T02:38:42.804Z,0
2017-04-14T02:39:42.824Z,0
2017-04-14T02:40:43.146Z,0
2017-04-14T02:41:43.159Z,0
2017-04-14T02:42:43.189Z,0
2017-04-14T02:43:43.204Z,0
2017-04-14T02:44:43.213Z,0
2017-04-14T02:45:43.226Z,0
2017-04-14T02:46:43.243Z,0
2017-04-14T02:47:43.259Z,0
2017-04-14T02:48:43.282Z,0
2017-04-14T02:49:43.288Z,0
2017-04-14T02:50:43.306Z,0
2017-04-14T02:51:43.318Z,0
2017-04-14T02:52:43.343Z,0
2017-04-14T02:53:43.351Z,0
2017-04-14T02:54:43.384Z,0
2017-04-14T02:55:43.390Z,0
2017-04-14T02:56:43.405Z,0
2017-04-14T02:57:43.421Z,0
2017-04-14T02:58:43.631Z,0
2017-04-14T02:59:43.529Z,0
2017-04-14T03:00:43.645Z,0
2017-04-14T03:01:43.468Z,0
2017-04-14T03:02:43.492Z,0
2017-04-14T03:03:43.511Z,0
2017-04-14T03:04:43.202Z,0
2017-04-14T03:05:43.533Z,0
2017-04-14T03:06:43.556Z,0
2017-04-14T03:07:43.578Z,0
2017-04-14T03:08:43.595Z,0
2017-04-14T03:09:43.604Z,0
2017-04-14T03:10:43.612Z,0
2017-04-14T03:11:43.627Z,0
2017-04-14T03:12:43.329Z,0
2017-04-14T03:13:43.662Z,0
2017-04-14T03:14:43.682Z,0
2017-04-14T03:15:43.691Z,0
2017-04-14T03:16:43.697Z,0
2017-04-14T03:17:43.417Z,0
2017-04-14T03:18:43.419Z,0
2017-04-14T03:19:43.748Z,0
2017-04-14T03:20:43.759Z,0
2017-04-14T03:21:43.769Z,0
2017-04-14T03:22:43.789Z,0
2017-04-14T03:23:43.820Z,0
2017-04-14T03:24:43.508Z,0
2017-04-14T03:25:43.524Z,0
2017-04-14T03:26:43.849Z,0
2017-04-14T03:27:43.864Z,0
2017-04-14T03:28:43.890Z,0
2017-04-14T03:29:43.907Z,0
2017-04-14T03:30:43.924Z,0
2017-04-14T03:31:43.976Z,0
2017-04-14T03:32:43.946Z,0
2017-04-14T03:33:43.968Z,0
2017-04-14T03:34:43.982Z,0
2017-04-14T03:35:43.994Z,0
2017-04-14T03:36:44.209Z,0
2017-04-14T03:37:44.217Z,0
2017-04-14T03:38:44.243Z,0
2017-04-14T03:39:44.259Z,0
2017-04-14T03:40:44.265Z,0
2017-04-14T03:41:44.275Z,0
2017-04-14T03:42:44.280Z,0
2017-04-14T03:43:44.293Z,0
2017-04-14T03:44:44.306Z,0
2017-04-14T03:45:43.999Z,0
2017-04-14T03:46:44.310Z,0
2017-04-14T03:47:44.006Z,0
2017-04-14T03:48:44.016Z,0
2017-04-14T03:49:44.023Z,0
2017-04-14T03:50:44.300Z,0
2017-04-14T03:51:44.308Z,0
2017-04-14T03:52:44.115Z,0
2017-04-14T03:53:44.326Z,0
2017-04-14T03:54:44.325Z,0
2017-04-14T03:55:44.337Z,0
2017-04-14T03:56:44.142Z,0
2017-04-14T03:57:44.349Z,0
2017-04-14T03:58:44.363Z,4
2017-04-14T03:59:44.366Z,4
2017-04-14T04:00:44.366Z,0
2017-04-14T04:01:44.384Z,0
2017-04-14T04:02:44.395Z,4
2017-04-14T04:03:44.419Z,4
2017-04-14T04:04:44.470Z,4
2017-04-14T04:05:44.435Z,4
2017-04-14T04:06:44.455Z,8
2017-04-14T04:07:44.477Z,4
2017-04-14T04:08:44.478Z,8
2017-04-14T04:09:44.502Z,8
2017-04-14T04:10:44.514Z,8
2017-04-14T04:11:44.522Z,8
2017-04-14T04:12:44.325Z,12
2017-04-14T04:13:44.569Z,12
2017-04-14T04:14:44.575Z,16
2017-04-14T04:15:44.588Z,16
2017-04-14T04:16:44.605Z,16
2017-04-14T04:17:44.622Z,20
2017-04-14T04:18:44.634Z,20
2017-04-14T04:19:44.646Z,24
2017-04-14T04:20:44.659Z,28
2017-04-14T04:21:44.672Z,28
2017-04-14T04:22:44.689Z,32
2017-04-14T04:23:44.711Z,32
2017-04-14T04:24:44.724Z,40
2017-04-14T04:25:44.737Z,40
2017-04-14T04:26:44.744Z,44
2017-04-14T04:27:44.762Z,48
2017-04-14T04:28:44.477Z,52
2017-04-14T04:29:44.790Z,56
2017-04-14T04:30:44.812Z,56
2017-04-14T04:31:44.845Z,60
2017-04-14T04:32:44.837Z,64
2017-04-14T04:33:44.856Z,68
2017-04-14T04:34:44.240Z,72
2017-04-14T04:35:44.564Z,76
2017-04-14T04:36:44.898Z,84
2017-04-14T04:37:44.614Z,88
2017-04-14T04:38:44.930Z,88
2017-04-14T04:39:44.995Z,92
2017-04-14T04:40:44.953Z,96
2017-04-14T04:41:44.974Z,96
2017-04-14T04:42:44.983Z,104
2017-04-14T04:43:45.006Z,104
2017-04-14T04:44:45.019Z,112
2017-04-14T04:45:45.084Z,116
2017-04-14T04:46:45.040Z,116
2017-04-14T04:47:45.071Z,120
2017-04-14T04:48:45.074Z,124
2017-04-14T04:49:45.090Z,128
2017-04-14T04:50:45.107Z,132
2017-04-14T04:51:45.119Z,136
2017-04-14T04:52:44.816Z,136
2017-04-14T04:53:44.832Z,144
2017-04-14T04:54:45.160Z,144
2017-04-14T04:55:45.170Z,152
2017-04-14T04:56:45.198Z,152
2017-04-14T04:57:45.208Z,160
2017-04-14T04:58:45.222Z,164
2017-04-14T04:59:44.926Z,168
2017-04-14T05:00:44.943Z,172
2017-04-14T05:01:44.952Z,180
2017-04-14T05:02:45.279Z,184
2017-04-14T05:03:45.292Z,188
2017-04-14T05:04:45.310Z,184
2017-04-14T05:05:45.012Z,184
2017-04-14T05:06:45.339Z,184
2017-04-14T05:07:45.362Z,188
2017-04-14T05:08:45.375Z,192
2017-04-14T05:09:45.079Z,192
2017-04-14T05:10:45.392Z,192
2017-04-14T05:11:45.514Z,192
2017-04-14T05:12:45.110Z,192
2017-04-14T05:13:45.537Z,196
2017-04-14T05:14:45.566Z,196
2017-04-14T05:15:45.265Z,200
2017-04-14T05:16:45.581Z,200
2017-04-14T05:17:45.595Z,204
2017-04-14T05:18:45.594Z,208
2017-04-14T05:19:45.602Z,212
2017-04-14T05:20:45.609Z,212
2017-04-14T05:21:45.609Z,216
2017-04-14T05:22:45.617Z,220
2017-04-14T05:23:45.687Z,224
2017-04-14T05:24:45.696Z,236
2017-04-14T05:25:45.689Z,244
2017-04-14T05:26:45.699Z,244
2017-04-14T05:27:45.713Z,244
2017-04-14T05:28:45.720Z,244
2017-04-14T05:29:45.679Z,240
2017-04-14T05:30:45.819Z,236
2017-04-14T05:31:45.510Z,240
2017-04-14T05:32:45.814Z,240
2017-04-14T05:33:45.839Z,244
2017-04-14T05:34:45.523Z,244
2017-04-14T05:35:45.651Z,244
2017-04-14T05:36:45.966Z,244
2017-04-14T05:37:45.518Z,248
2017-04-14T05:38:45.983Z,248
2017-04-14T05:39:45.946Z,248
2017-04-14T05:40:46.000Z,248
2017-04-14T05:41:45.695Z,252
2017-04-14T05:42:46.015Z,252
2017-04-14T05:43:45.967Z,256
2017-04-14T05:44:46.025Z,260
2017-04-14T05:45:45.711Z,264
2017-04-14T05:46:45.301Z,272
2017-04-14T05:47:45.699Z,276
2017-04-14T05:48:46.131Z,272
2017-04-14T05:49:45.784Z,268
2017-04-14T05:50:46.108Z,268
2017-04-14T05:51:46.113Z,268
2017-04-14T05:52:46.115Z,268
2017-04-14T05:53:46.234Z,268
2017-04-14T05:54:46.132Z,268
2017-04-14T05:55:46.140Z,272
2017-04-14T05:56:46.152Z,280
2017-04-14T05:57:45.852Z,288
2017-04-14T05:58:45.965Z,292
2017-04-14T05:59:46.206Z,280
2017-04-14T06:00:45.823Z,276
2017-04-14T06:01:45.833Z,276
2017-04-14T06:02:46.154Z,276
2017-04-14T06:03:46.178Z,280
2017-04-14T06:04:46.191Z,288
2017-04-14T06:05:46.106Z,296
2017-04-14T06:06:46.117Z,304
2017-04-14T06:07:46.121Z,304
2017-04-14T06:08:45.805Z,300
2017-04-14T06:09:45.820Z,296
2017-04-14T06:10:46.274Z,300
2017-04-14T06:11:46.285Z,304
2017-04-14T06:12:46.306Z,308
2017-04-14T06:13:46.322Z,308
2017-04-14T06:14:46.340Z,304
2017-04-14T06:15:46.362Z,296
2017-04-14T06:16:46.359Z,296
2017-04-14T06:17:46.391Z,296
2017-04-14T06:18:46.392Z,296
2017-04-14T06:19:46.408Z,300
2017-04-14T06:20:46.453Z,296
2017-04-14T06:21:46.438Z,296
2017-04-14T06:22:46.443Z,292
2017-04-14T06:23:46.470Z,296
2017-04-14T06:24:46.486Z,304
2017-04-14T06:25:46.496Z,308
2017-04-14T06:26:46.188Z,308
2017-04-14T06:27:46.529Z,308
2017-04-14T06:28:46.543Z,308
2017-04-14T06:29:46.553Z,304
2017-04-14T06:30:46.252Z,304
2017-04-14T06:31:46.577Z,300
2017-04-14T06:32:46.604Z,296
2017-04-14T06:33:46.609Z,296
2017-04-14T06:34:46.747Z,300
2017-04-14T06:35:46.736Z,296
2017-04-14T06:36:46.772Z,304
2017-04-14T06:37:46.902Z,308
2017-04-14T06:38:46.909Z,312
2017-04-14T06:39:46.917Z,308
2017-04-14T06:40:46.883Z,312
2017-04-14T06:41:46.886Z,308
2017-04-14T06:42:46.892Z,316
2017-04-14T06:43:46.901Z,320
2017-04-14T06:44:46.905Z,324
2017-04-14T06:45:46.988Z,324
2017-04-14T06:46:46.976Z,324
2017-04-14T06:47:47.010Z,336
2017-04-14T06:48:47.025Z,340
2017-04-14T06:49:47.029Z,340
2017-04-14T06:50:47.041Z,336
2017-04-14T06:51:47.037Z,324
2017-04-14T06:52:47.048Z,312
2017-04-14T06:53:47.055Z,308
2017-04-14T06:54:46.753Z,308
2017-04-14T06:55:47.080Z,312
2017-04-14T06:56:47.088Z,312
2017-04-14T06:57:47.084Z,316
2017-04-14T06:58:46.778Z,320
2017-04-14T06:59:47.067Z,320
2017-04-14T07:00:47.069Z,320
2017-04-14T07:01:46.757Z,320
2017-04-14T07:02:47.079Z,320
2017-04-14T07:03:47.084Z,320
2017-04-14T07:04:47.139Z,328
2017-04-14T07:05:47.106Z,332
2017-04-14T07:06:47.150Z,344
2017-04-14T07:07:47.145Z,344
2017-04-14T07:08:46.810Z,340
2017-04-14T07:09:47.131Z,332
2017-04-14T07:10:46.835Z,328
2017-04-14T07:11:47.172Z,328
2017-04-14T07:12:47.180Z,328
2017-04-14T07:13:47.198Z,328
2017-04-14T07:14:46.585Z,332
2017-04-14T07:15:47.225Z,328
2017-04-14T07:16:47.018Z,328
2017-04-14T07:17:47.265Z,332
2017-04-14T07:18:47.282Z,332
2017-04-14T07:19:47.284Z,336
2017-04-14T07:20:47.299Z,344
2017-04-14T07:21:47.318Z,348
2017-04-14T07:22:47.333Z,360
2017-04-14T07:23:47.344Z,368
2017-04-14T07:24:47.045Z,368
2017-04-14T07:25:47.372Z,372
2017-04-14T07:26:47.386Z,384
2017-04-14T07:27:47.406Z,368
2017-04-14T07:28:47.109Z,356
2017-04-14T07:29:47.429Z,356
2017-04-14T07:30:47.448Z,364
2017-04-14T07:31:47.465Z,376
2017-04-14T07:32:47.200Z,388
2017-04-14T07:33:47.187Z,388
2017-04-14T07:34:47.513Z,380
2017-04-14T07:35:47.212Z,372
2017-04-14T07:36:47.540Z,364
2017-04-14T07:37:47.553Z,372
2017-04-14T07:38:47.570Z,388
2017-04-14T07:39:47.592Z,396
2017-04-14T07:40:47.609Z,408
2017-04-14T07:41:47.611Z,444
2017-04-14T07:42:47.633Z,448
2017-04-14T07:43:47.329Z,440
2017-04-14T07:44:47.660Z,416
2017-04-14T07:45:47.676Z,400
2017-04-14T07:46:47.690Z,404
2017-04-14T07:47:47.704Z,480
2017-04-14T07:48:47.411Z,592
2017-04-14T07:49:47.733Z,728
2017-04-14T07:50:47.751Z,1008
2017-04-14T07:51:47.774Z,1672
2017-04-14T07:52:47.789Z,1840
2017-04-14T07:53:47.795Z,1744
2017-04-14T07:54:47.814Z,1624
2017-04-14T07:55:47.835Z,976
2017-04-14T07:56:47.867Z,664
2017-04-14T07:57:47.866Z,916
2017-04-14T07:58:47.876Z,1356
2017-04-14T07:59:47.891Z,1280
2017-04-14T08:00:47.914Z,956
2017-04-14T08:01:47.916Z,516
2017-04-14T08:02:47.942Z,472
2017-04-14T08:03:47.955Z,472
2017-04-14T08:04:47.970Z,584
2017-04-14T08:05:47.990Z,808
2017-04-14T08:06:47.997Z,1200
2017-04-14T08:07:48.027Z,1084
2017-04-14T08:08:48.078Z,752
2017-04-14T08:09:48.046Z,484
2017-04-14T08:10:48.058Z,452
2017-04-14T08:11:48.077Z,468
2017-04-14T08:12:48.097Z,468
2017-04-14T08:13:48.112Z,492
2017-04-14T08:14:48.123Z,472
2017-04-14T08:15:47.830Z,500
2017-04-14T08:16:47.851Z,532
2017-04-14T08:17:48.178Z,580
2017-04-14T08:18:48.188Z,552
2017-04-14T08:19:48.220Z,528
2017-04-14T08:20:48.221Z,604
2017-04-14T08:21:48.249Z,752
2017-04-14T08:22:48.260Z,684
2017-04-14T08:23:47.956Z,624
2017-04-14T08:24:48.292Z,544
2017-04-14T08:25:48.313Z,524
2017-04-14T08:26:48.318Z,548
2017-04-14T08:27:48.340Z,540
2017-04-14T08:28:48.350Z,568
2017-04-14T08:29:48.364Z,524
2017-04-14T08:30:48.371Z,520
2017-04-14T08:31:48.397Z,524
2017-04-14T08:32:48.412Z,524
2017-04-14T08:33:48.113Z,540
2017-04-14T08:34:48.449Z,572
2017-04-14T08:35:48.461Z,684
2017-04-14T08:36:48.164Z,820
2017-04-14T08:37:48.502Z,852
2017-04-14T08:38:48.519Z,788
2017-04-14T08:39:48.208Z,880
2017-04-14T08:40:48.538Z,868
2017-04-14T08:41:48.567Z,852
2017-04-14T08:42:48.577Z,776
2017-04-14T08:43:48.278Z,656
2017-04-14T08:44:48.653Z,748
2017-04-14T08:45:48.629Z,828
2017-04-14T08:46:48.737Z,988
2017-04-14T08:47:48.658Z,724
2017-04-14T08:48:48.733Z,672
2017-04-14T08:49:48.742Z,636
2017-04-14T08:50:48.753Z,612
2017-04-14T08:51:48.749Z,600
2017-04-14T08:52:48.759Z,660
2017-04-14T08:53:48.760Z,640
2017-04-14T08:54:48.774Z,624
2017-04-14T08:55:48.782Z,720
2017-04-14T08:56:48.492Z,968
2017-04-14T08:57:48.904Z,1104
2017-04-14T08:58:48.940Z,1232
2017-04-14T08:59:48.959Z,972
2017-04-14T09:00:48.955Z,908
2017-04-14T09:01:49.012Z,744
2017-04-14T09:02:49.028Z,656
2017-04-14T09:03:49.013Z,664
2017-04-14T09:04:49.168Z,700
2017-04-14T09:05:49.174Z,808
2017-04-14T09:06:49.180Z,1080
2017-04-14T09:07:49.187Z,1596
2017-04-14T09:08:49.197Z,2220
2017-04-14T09:09:49.192Z,2424
2017-04-14T09:10:49.207Z,2116
2017-04-14T09:11:49.220Z,1452
2017-04-14T09:12:49.184Z,1236
2017-04-14T09:13:49.190Z,1008
2017-04-14T09:14:49.188Z,952
2017-04-14T09:15:49.229Z,1132
2017-04-14T09:16:49.343Z,1124
2017-04-14T09:17:49.351Z,1024
2017-04-14T09:18:49.050Z,828
2017-04-14T09:19:49.371Z,972
2017-04-14T09:20:49.328Z,896
2017-04-14T09:21:49.023Z,920
2017-04-14T09:22:49.342Z,988
2017-04-14T09:23:49.346Z,1076
2017-04-14T09:24:49.353Z,1200
2017-04-14T09:25:49.358Z,1408
2017-04-14T09:26:49.453Z,1328
2017-04-14T09:27:49.098Z,1284
2017-04-14T09:28:49.101Z,1108
2017-04-14T09:29:49.417Z,896
2017-04-14T09:30:49.433Z,764
2017-04-14T09:31:49.112Z,752
2017-04-14T09:32:49.412Z,1084
2017-04-14T09:33:49.434Z,1184
2017-04-14T09:34:49.441Z,1140
2017-04-14T09:35:49.461Z,1104
2017-04-14T09:36:49.484Z,1068
2017-04-14T09:37:49.507Z,720
2017-04-14T09:38:49.206Z,744
2017-04-14T09:39:49.536Z,948
2017-04-14T09:40:49.547Z,920
2017-04-14T09:41:49.573Z,976
2017-04-14T09:42:49.586Z,1472
2017-04-14T09:43:49.615Z,1244
2017-04-14T09:44:49.623Z,1616
2017-04-14T09:45:49.637Z,1760
2017-04-14T09:46:49.654Z,2024
2017-04-14T09:47:49.683Z,2152
2017-04-14T09:48:49.706Z,2104
2017-04-14T09:49:49.706Z,1856
2017-04-14T09:50:49.727Z,1460
2017-04-14T09:51:49.427Z,980
2017-04-14T09:52:49.769Z,732
2017-04-14T09:53:49.789Z,812
2017-04-14T09:54:49.801Z,816
2017-04-14T09:55:49.817Z,1044
2017-04-14T09:56:49.834Z,656
2017-04-14T09:57:49.850Z,1060
2017-04-14T09:58:49.562Z,1072
2017-04-14T09:59:49.888Z,1092
2017-04-14T10:00:49.911Z,1156
2017-04-14T10:01:49.923Z,1312
2017-04-14T10:02:49.986Z,1572
2017-04-14T10:03:49.973Z,1984
2017-04-14T10:04:50.207Z,2564
2017-04-14T10:05:50.000Z,2544
2017-04-14T10:06:50.015Z,2132
2017-04-14T10:07:50.037Z,1804
2017-04-14T10:08:50.057Z,1724
2017-04-14T10:09:50.067Z,1648
2017-04-14T10:10:50.095Z,1904
2017-04-14T10:11:50.110Z,1836
2017-04-14T10:12:50.129Z,1708
2017-04-14T10:13:50.144Z,1332
2017-04-14T10:14:50.159Z,1488
2017-04-14T10:15:49.869Z,1612
2017-04-14T10:16:50.200Z,2092
2017-04-14T10:17:50.226Z,2664
2017-04-14T10:18:50.308Z,3024
2017-04-14T10:19:50.260Z,3108
2017-04-14T10:20:49.962Z,2912
2017-04-14T10:21:49.977Z,2232
2017-04-14T10:22:49.999Z,1524
2017-04-14T10:23:50.333Z,1068
2017-04-14T10:24:50.354Z,756
2017-04-14T10:25:50.415Z,688
2017-04-14T10:26:50.385Z,1268
2017-04-14T10:27:50.410Z,1260
2017-04-14T10:28:50.428Z,1256
2017-04-14T10:29:50.448Z,1272
2017-04-14T10:30:50.469Z,1304
2017-04-14T10:31:50.210Z,1368
2017-04-14T10:32:50.503Z,964
2017-04-14T10:33:50.220Z,1592
2017-04-14T10:34:50.540Z,1912
2017-04-14T10:35:50.247Z,2312
2017-04-14T10:36:50.267Z,2488
2017-04-14T10:37:50.600Z,2464
2017-04-14T10:38:50.621Z,2580
2017-04-14T10:39:50.629Z,3012
2017-04-14T10:40:50.747Z,2868
2017-04-14T10:41:50.671Z,2904
2017-04-14T10:42:50.696Z,2776
2017-04-14T10:43:50.731Z,2476
2017-04-14T10:44:50.743Z,1572
2017-04-14T10:45:50.761Z,1456
2017-04-14T10:46:50.460Z,2032
2017-04-14T10:47:50.788Z,1992
2017-04-14T10:48:50.815Z,1808
2017-04-14T10:49:50.829Z,1624
2017-04-14T10:50:50.847Z,1460
2017-04-14T10:51:50.864Z,1412
2017-04-14T10:52:50.889Z,1436
2017-04-14T10:53:50.915Z,1292
2017-04-14T10:54:50.927Z,1544
2017-04-14T10:55:50.951Z,1552
2017-04-14T10:56:50.978Z,1516
2017-04-14T10:57:51.039Z,1492
2017-04-14T10:58:51.010Z,1456
2017-04-14T10:59:51.035Z,1460
2017-04-14T11:00:51.050Z,1484
2017-04-14T11:01:51.070Z,1508
2017-04-14T11:02:51.091Z,944
2017-04-14T11:03:50.801Z,1492
2017-04-14T11:04:51.136Z,916
2017-04-14T11:05:51.159Z,1060
2017-04-14T11:06:51.171Z,1756
2017-04-14T11:07:51.200Z,2140
2017-04-14T11:08:50.900Z,2644
2017-04-14T11:09:51.231Z,3264
2017-04-14T11:10:50.938Z,3452
2017-04-14T11:11:51.276Z,3388
2017-04-14T11:12:51.296Z,3056
2017-04-14T11:13:51.323Z,2468
2017-04-14T11:14:51.339Z,2084
2017-04-14T11:15:51.355Z,1968
2017-04-14T11:16:51.378Z,1624
2017-04-14T11:17:51.398Z,1568
2017-04-14T11:18:51.434Z,1680
2017-04-14T11:19:51.436Z,1564
2017-04-14T11:20:51.460Z,1008
2017-04-14T11:21:51.481Z,712
2017-04-14T11:22:51.608Z,640
2017-04-14T11:23:51.617Z,632
2017-04-14T11:24:51.651Z,680
2017-04-14T11:25:51.658Z,752
2017-04-14T11:26:51.667Z,772
2017-04-14T11:27:51.306Z,804
2017-04-14T11:28:51.674Z,1632
2017-04-14T11:29:51.683Z,964
2017-04-14T11:30:51.693Z,1028
2017-04-14T11:31:51.700Z,1216
2017-04-14T11:32:51.835Z,1872
2017-04-14T11:33:51.844Z,2016
2017-04-14T11:34:51.779Z,1964
2017-04-14T11:35:51.597Z,1844
2017-04-14T11:36:51.916Z,1736
2017-04-14T11:37:51.935Z,1780
2017-04-14T11:38:51.771Z,1304
2017-04-14T11:39:51.660Z,1136
2017-04-14T11:40:52.109Z,2068
2017-04-14T11:41:52.115Z,1948
2017-04-14T11:42:52.125Z,2308
2017-04-14T11:43:52.132Z,2288
2017-04-14T11:44:52.142Z,2636
2017-04-14T11:45:52.148Z,2312
2017-04-14T11:46:52.162Z,1988
2017-04-14T11:47:52.198Z,2132
2017-04-14T11:48:52.207Z,2376
2017-04-14T11:49:51.761Z,2344
2017-04-14T11:50:52.227Z,2972
2017-04-14T11:51:52.234Z,2652
2017-04-14T11:52:52.234Z,1828
2017-04-14T11:53:52.240Z,1424
2017-04-14T11:54:52.103Z,1400
2017-04-14T11:55:52.298Z,1516
2017-04-14T11:56:52.333Z,1400
2017-04-14T11:57:52.329Z,1160
2017-04-14T11:58:52.338Z,1220
2017-04-14T11:59:52.294Z,1404
2017-04-14T12:00:52.315Z,1860
2017-04-14T12:01:52.340Z,1652
2017-04-14T12:02:52.400Z,1624
2017-04-14T12:03:52.381Z,1584
2017-04-14T12:04:52.401Z,1632
2017-04-14T12:05:52.418Z,1708
2017-04-14T12:06:52.448Z,1300
2017-04-14T12:07:52.470Z,1700
2017-04-14T12:08:52.485Z,1552
2017-04-14T12:09:52.524Z,1040
2017-04-14T12:10:52.529Z,1116
2017-04-14T12:11:52.552Z,1932
2017-04-14T12:12:52.572Z,2116
2017-04-14T12:13:52.598Z,2120
2017-04-14T12:14:52.623Z,1916
2017-04-14T12:15:52.380Z,1808
2017-04-14T12:16:52.669Z,1800
2017-04-14T12:17:52.749Z,1680
2017-04-14T12:18:52.705Z,1644
2017-04-14T12:19:52.733Z,1632
2017-04-14T12:20:52.749Z,1700
2017-04-14T12:21:52.457Z,1528
2017-04-14T12:22:52.481Z,1432
2017-04-14T12:23:52.820Z,1624
2017-04-14T12:24:53.055Z,1884
2017-04-14T12:25:52.859Z,1636
2017-04-14T12:26:52.885Z,1636
2017-04-14T12:27:52.906Z,1468
2017-04-14T12:28:52.926Z,1660
2017-04-14T12:29:52.947Z,1816
2017-04-14T12:30:52.653Z,1796
2017-04-14T12:31:52.990Z,1952
2017-04-14T12:32:53.019Z,2256
2017-04-14T12:33:53.039Z,2820
2017-04-14T12:34:53.062Z,2352
2017-04-14T12:35:53.085Z,2504
2017-04-14T12:36:53.275Z,3296
2017-04-14T12:37:53.209Z,2324
2017-04-14T12:38:53.231Z,1892
2017-04-14T12:39:53.239Z,1676
2017-04-14T12:40:53.260Z,1460
2017-04-14T12:41:53.267Z,1292
2017-04-14T12:42:53.275Z,1316
2017-04-14T12:43:53.286Z,1384
2017-04-14T12:44:53.296Z,1340
2017-04-14T12:45:53.306Z,1380
2017-04-14T12:46:53.139Z,1464
2017-04-14T12:47:53.348Z,1456
2017-04-14T12:48:53.368Z,1360
2017-04-14T12:49:53.393Z,1328
2017-04-14T12:50:53.423Z,1304
2017-04-14T12:51:53.440Z,1252
2017-04-14T12:52:53.459Z,1196
2017-04-14T12:53:53.483Z,1124
2017-04-14T12:54:53.504Z,1024
2017-04-14T12:55:53.529Z,1016
2017-04-14T12:56:53.554Z,1020
2017-04-14T12:57:53.579Z,1076
2017-04-14T12:58:53.600Z,1208
2017-04-14T12:59:53.619Z,1532
2017-04-14T13:00:53.646Z,2168
2017-04-14T13:01:53.665Z,3016
2017-04-14T13:02:53.687Z,3924
2017-04-14T13:03:53.761Z,3168
2017-04-14T13:04:53.741Z,2936
2017-04-14T13:05:53.751Z,2528
2017-04-14T13:06:53.775Z,2528
2017-04-14T13:07:53.811Z,2280
2017-04-14T13:08:53.825Z,2136
2017-04-14T13:09:53.849Z,2264
2017-04-14T13:10:53.870Z,3084
2017-04-14T13:11:53.884Z,3928
2017-04-14T13:12:53.916Z,4244
2017-04-14T13:13:53.621Z,3776
2017-04-14T13:14:53.958Z,3256
2017-04-14T13:15:53.670Z,3812
2017-04-14T13:16:53.690Z,3500
2017-04-14T13:17:54.233Z,3508
2017-04-14T13:18:54.080Z,3368
2017-04-14T13:19:54.075Z,3632
2017-04-14T13:20:54.098Z,4140
2017-04-14T13:21:54.123Z,4256
2017-04-14T13:22:53.829Z,4172
2017-04-14T13:23:54.179Z,4356
2017-04-14T13:24:54.189Z,4404
2017-04-14T13:25:54.212Z,3932
2017-04-14T13:26:53.922Z,3628
2017-04-14T13:27:53.950Z,2976
2017-04-14T13:28:54.285Z,2200
2017-04-14T13:29:54.115Z,1860
2017-04-14T13:30:54.129Z,2100
2017-04-14T13:31:54.351Z,2556
2017-04-14T13:32:54.390Z,3088
2017-04-14T13:33:54.395Z,3600
2017-04-14T13:34:54.550Z,3496
2017-04-14T13:35:54.444Z,3240
2017-04-14T13:36:54.475Z,2532
2017-04-14T13:37:54.500Z,2348
2017-04-14T13:38:54.604Z,1904
2017-04-14T13:39:54.219Z,1548
2017-04-14T13:40:54.558Z,1884
2017-04-14T13:41:54.584Z,2356
2017-04-14T13:42:54.607Z,2812
2017-04-14T13:43:54.827Z,2936
2017-04-14T13:44:54.745Z,3372
2017-04-14T13:45:54.680Z,3364
2017-04-14T13:46:54.623Z,3796
2017-04-14T13:47:54.945Z,4140
2017-04-14T13:48:54.952Z,3612
2017-04-14T13:49:54.765Z,3048
2017-04-14T13:50:54.788Z,3292
2017-04-14T13:51:54.813Z,3644
2017-04-14T13:52:54.839Z,3216
2017-04-14T13:53:54.963Z,3256
2017-04-14T13:54:54.687Z,2992
2017-04-14T13:55:54.910Z,2532